Time;durP1;ratioP1;P1;durP2;ratioP2;P2;SDS_P1;SDS_P2;PMS_P1;PMS_P2;Temp;Humidity;BMP_temperature;BMP_pressure;BME280_temperature;BME280_humidity;BME280_pressure;Samples;Min_cycle;Max_cycle;Signal;HPM_P1;HPM_P2
2021/12/25 00:00:10;;;;;;;7.30;1.52;;;-0.10;99.90;;;;;;5036229;28;20057;-69
2021/12/25 00:02:36;;;;;;;5.18;1.92;;;-0.10;99.90;;;;;;5036079;28;20126;-68
2021/12/25 00:05:03;;;;;;;4.20;1.48;;;-0.20;99.90;;;;;;5036070;28;20072;-69
2021/12/25 00:07:29;;;;;;;4.88;1.40;;;-0.20;99.90;;;;;;5035940;28;20056;-69
2021/12/25 00:09:54;;;;;;;3.83;1.40;;;-0.20;99.90;;;;;;5036333;28;20056;-69
2021/12/25 00:12:20;;;;;;;4.18;1.77;;;-0.20;99.90;;;;;;5019837;28;20060;-69
2021/12/25 00:14:45;;;;;;;4.50;1.42;;;-0.30;99.90;;;;;;5035461;28;20045;-71
2021/12/25 00:17:11;;;;;;;5.25;1.50;;;-0.30;99.90;;;;;;5027575;28;20088;-68
2021/12/25 00:19:36;;;;;;;5.85;1.60;;;-0.30;99.90;;;;;;5035926;28;20063;-68
2021/12/25 00:22:02;;;;;;;5.68;1.25;;;-0.30;99.90;;;;;;5018822;28;20127;-69
2021/12/25 00:24:28;;;;;;;3.08;1.42;;;-0.30;99.90;;;;;;5035802;28;20056;-68
2021/12/25 00:27:21;;;;;;;4.05;1.40;;;-0.30;99.90;;;;;;5035149;28;20124;-69
2021/12/25 00:32:30;;;;;;;3.60;1.30;;;-0.40;99.90;;;;;;5052432;28;20107;-67
2021/12/25 00:34:56;;;;;;;4.68;1.42;;;-0.40;99.90;;;;;;5051186;28;20077;-68
2021/12/25 00:37:21;;;;;;;4.63;1.90;;;-0.40;99.90;;;;;;5035287;28;20085;-70
2021/12/25 00:39:47;;;;;;;3.50;1.45;;;-0.50;99.90;;;;;;5035304;28;20075;-69
2021/12/25 00:42:13;;;;;;;4.65;1.38;;;-0.50;99.90;;;;;;5034198;28;20147;-68
2021/12/25 00:44:39;;;;;;;6.72;1.60;;;-0.60;99.90;;;;;;5035587;28;20060;-68
2021/12/25 00:47:05;;;;;;;4.78;1.30;;;-0.60;99.90;;;;;;5034486;28;20056;-67
2021/12/25 00:49:30;;;;;;;4.25;1.20;;;-0.50;99.90;;;;;;5035457;28;20477;-69
2021/12/25 00:51:56;;;;;;;3.00;1.13;;;-0.50;99.90;;;;;;5034946;28;20061;-70
2021/12/25 00:54:22;;;;;;;2.80;1.40;;;-0.60;99.90;;;;;;5034245;28;20041;-68
2021/12/25 00:56:48;;;;;;;3.03;0.85;;;-0.50;99.90;;;;;;5017876;28;20109;-69
2021/12/25 00:59:14;;;;;;;2.85;1.10;;;-0.60;99.90;;;;;;5035066;28;20053;-69
2021/12/25 01:01:40;;;;;;;4.53;1.27;;;-0.60;99.90;;;;;;5022708;28;20061;-69
2021/12/25 01:04:06;;;;;;;4.18;1.20;;;-0.60;99.90;;;;;;5030305;28;20525;-69
2021/12/25 01:06:31;;;;;;;2.95;1.00;;;-0.60;99.90;;;;;;5034819;28;20057;-70
2021/12/25 01:08:57;;;;;;;3.45;0.93;;;-0.70;99.90;;;;;;5051394;28;20406;-70
2021/12/25 01:11:26;;;;;;;3.42;1.00;;;-0.70;99.90;;;;;;5033592;28;20056;-69
2021/12/25 01:13:58;;;;;;;4.75;1.42;;;-0.70;99.90;;;;;;5051801;28;20068;-68
2021/12/25 01:29:38;;;;;;;5.35;1.08;;;-1.00;99.90;;;;;;5035564;28;20052;-70
2021/12/25 01:37:23;;;;;;;3.50;1.23;;;-1.10;99.90;;;;;;5032530;28;20064;-68
2021/12/25 01:40:12;;;;;;;1.33;0.70;;;-1.20;99.90;;;;;;5014935;28;20081;-67
2021/12/25 01:48:04;;;;;;;5.32;1.00;;;-1.30;99.90;;;;;;5046360;28;20053;-68
2021/12/25 01:50:30;;;;;;;1.38;0.80;;;-1.40;99.90;;;;;;5024268;28;20133;-69
2021/12/25 01:52:57;;;;;;;4.38;1.00;;;-1.40;99.90;;;;;;5015071;28;20064;-68
2021/12/25 01:55:28;;;;;;;3.20;1.05;;;-1.40;99.90;;;;;;5015203;28;20413;-68
2021/12/25 01:57:56;;;;;;;5.55;1.10;;;-1.30;99.90;;;;;;5014841;28;20133;-68
2021/12/25 02:00:30;;;;;;;2.45;1.02;;;-1.50;99.90;;;;;;5015207;28;20053;-70
2021/12/25 02:02:56;;;;;;;3.85;1.20;;;-1.50;99.90;;;;;;5029151;28;20396;-69
2021/12/25 02:05:23;;;;;;;2.67;0.60;;;-1.50;99.90;;;;;;5051508;28;20592;-69
2021/12/25 02:07:49;;;;;;;4.20;1.10;;;-1.60;99.90;;;;;;5034221;28;20041;-70
2021/12/25 02:10:16;;;;;;;3.45;1.08;;;-1.60;99.90;;;;;;5052549;28;20089;-68
2021/12/25 02:12:42;;;;;;;4.60;1.33;;;-1.60;99.90;;;;;;5033643;28;20045;-68
2021/12/25 02:15:14;;;;;;;2.58;0.90;;;-1.60;99.90;;;;;;5028082;28;20045;-69
2021/12/25 02:20:26;;;;;;;3.83;0.95;;;-1.70;99.90;;;;;;5034965;28;20117;-69
2021/12/25 02:22:59;;;;;;;1.63;0.77;;;-1.70;99.90;;;;;;5038069;28;20049;-68
2021/12/25 02:25:25;;;;;;;2.67;1.30;;;-1.70;99.90;;;;;;5037558;28;20543;-69
2021/12/25 02:27:50;;;;;;;4.13;1.15;;;-1.70;99.90;;;;;;5037393;28;20041;-69
2021/12/25 02:30:16;;;;;;;4.22;1.13;;;-1.80;99.90;;;;;;5037741;28;20056;-67
2021/12/25 02:32:45;;;;;;;4.03;1.00;;;-1.80;99.90;;;;;;5036949;28;20406;-70
2021/12/25 02:35:13;;;;;;;3.30;0.95;;;-1.80;99.90;;;;;;5029431;28;20097;-69
2021/12/25 02:37:40;;;;;;;3.03;1.05;;;-1.90;99.90;;;;;;5030207;28;20420;-68
2021/12/25 02:40:10;;;;;;;3.60;1.50;;;-1.90;99.90;;;;;;5020712;28;20045;-68
2021/12/25 02:42:36;;;;;;;3.00;1.10;;;-1.90;99.90;;;;;;5017161;28;20053;-69
2021/12/25 02:45:04;;;;;;;1.55;0.90;;;-1.90;99.90;;;;;;5035836;28;20060;-69
2021/12/25 02:47:31;;;;;;;1.70;1.00;;;-2.00;99.90;;;;;;5017345;28;20049;-67
2021/12/25 02:49:56;;;;;;;3.17;1.30;;;-2.00;99.90;;;;;;5030405;28;20049;-70
2021/12/25 02:52:22;;;;;;;3.72;1.65;;;-2.00;99.90;;;;;;5017089;28;20056;-69
2021/12/25 02:54:49;;;;;;;3.28;0.90;;;-2.00;99.90;;;;;;5017841;28;20365;-67
2021/12/25 02:57:16;;;;;;;2.42;0.88;;;-2.10;99.90;;;;;;5001406;28;20369;-69
2021/12/25 02:59:41;;;;;;;4.57;0.95;;;-2.10;99.90;;;;;;5017682;28;20481;-68
2021/12/25 03:02:13;;;;;;;1.70;1.00;;;-2.10;99.90;;;;;;5034812;28;20054;-67
2021/12/25 03:04:41;;;;;;;1.52;0.82;;;-2.10;99.90;;;;;;5017725;28;20049;-68
2021/12/25 03:07:08;;;;;;;6.15;1.20;;;-2.10;99.90;;;;;;5016897;28;20053;-68
2021/12/25 03:09:34;;;;;;;2.10;0.95;;;-2.20;99.90;;;;;;5016894;28;20089;-68
2021/12/25 03:12:02;;;;;;;2.42;1.20;;;-2.20;99.90;;;;;;5016992;28;20084;-67
2021/12/25 03:14:40;;;;;;;1.27;0.60;;;-2.20;99.90;;;;;;5017409;28;20085;-68
2021/12/25 03:17:06;;;;;;;3.13;1.10;;;-2.30;99.90;;;;;;5016741;28;20057;-69
2021/12/25 03:19:33;;;;;;;1.10;0.80;;;-2.30;99.90;;;;;;5034884;28;20041;-67
2021/12/25 03:22:00;;;;;;;2.38;1.10;;;-2.30;99.90;;;;;;5016902;28;20187;-69
2021/12/25 03:24:27;;;;;;;1.75;0.82;;;-2.30;99.90;;;;;;5017847;28;20388;-67
2021/12/25 03:26:55;;;;;;;2.72;1.00;;;-2.30;99.90;;;;;;5016342;28;20051;-67
2021/12/25 03:29:21;;;;;;;1.50;0.90;;;-2.40;99.90;;;;;;5017344;28;20045;-68
2021/12/25 03:31:47;;;;;;;2.22;0.80;;;-2.40;99.90;;;;;;5033670;28;20061;-68
2021/12/25 03:34:12;;;;;;;4.65;1.02;;;-2.40;99.90;;;;;;5016988;28;20049;-68
2021/12/25 03:36:38;;;;;;;4.20;1.08;;;-2.50;99.90;;;;;;5016318;28;20111;-68
2021/12/25 03:39:06;;;;;;;2.80;0.95;;;-2.50;99.90;;;;;;5034639;28;20061;-68
2021/12/25 03:41:32;;;;;;;1.77;0.82;;;-2.50;99.90;;;;;;5034176;28;20132;-67
2021/12/25 03:43:58;;;;;;;3.17;0.80;;;-2.50;99.90;;;;;;5000780;28;20528;-68
2021/12/25 03:46:24;;;;;;;3.15;0.80;;;-2.60;99.90;;;;;;4999977;28;20516;-67
2021/12/25 03:59:16;;;;;;;2.90;1.67;;;-2.70;99.90;;;;;;5016582;28;20054;-67
2021/12/25 04:01:51;;;;;;;2.85;1.48;;;-2.70;99.90;;;;;;5016412;28;20045;-68
2021/12/25 04:04:34;;;;;;;1.38;0.75;;;-2.80;99.90;;;;;;5015720;28;20069;-68
2021/12/25 04:07:12;;;;;;;;;;;-2.80;99.90;;;;;;5034673;28;20060;-68
2021/12/25 04:09:40;;;;;;;3.63;0.90;;;-2.80;99.90;;;;;;5033886;28;19924;-68
2021/12/25 04:12:11;;;;;;;1.25;0.90;;;-2.80;99.90;;;;;;5034037;28;20090;-67
2021/12/25 04:14:37;;;;;;;1.73;0.90;;;-2.90;99.90;;;;;;5016353;28;20053;-68
2021/12/25 04:17:03;;;;;;;1.40;0.80;;;-2.90;99.90;;;;;;5033274;28;20459;-68
2021/12/25 04:19:29;;;;;;;1.58;0.98;;;-2.80;99.90;;;;;;5015330;28;20061;-68
2021/12/25 04:22:02;;;;;;;2.13;0.80;;;-2.90;99.90;;;;;;5034209;28;20056;-66
2021/12/25 04:24:31;;;;;;;1.42;0.90;;;-2.90;99.90;;;;;;5016742;28;20049;-67
2021/12/25 04:26:57;;;;;;;2.53;1.17;;;-2.90;99.90;;;;;;5015319;28;20053;-66
2021/12/25 05:01:55;;;;;;;2.03;1.05;;;-3.20;99.90;;;;;;5052369;28;20053;-66
2021/12/25 05:04:58;;;;;;;3.83;0.80;;;-3.20;99.90;;;;;;5020538;28;20049;-67
2021/12/25 05:07:13;;;;;;;2.65;1.15;;;-3.20;99.90;;;;;;5031222;28;20524;-66
2021/12/25 05:09:38;;;;;;;1.77;1.05;;;-3.20;99.90;;;;;;5051186;28;20413;-68
2021/12/25 05:12:05;;;;;;;1.38;0.93;;;-3.20;99.90;;;;;;5052644;28;20064;-68
2021/12/25 05:14:30;;;;;;;3.03;1.17;;;-3.20;99.90;;;;;;5034294;28;20053;-66
2021/12/25 05:16:56;;;;;;;0.90;0.90;;;-3.30;99.90;;;;;;5037687;28;20413;-67
2021/12/25 05:19:21;;;;;;;2.15;1.10;;;-3.30;99.90;;;;;;5015796;28;20060;-67
2021/12/25 05:21:48;;;;;;;1.67;1.10;;;-3.30;99.90;;;;;;5048587;28;20080;-67
2021/12/25 05:24:13;;;;;;;2.03;1.42;;;-3.40;99.90;;;;;;5053125;28;20056;-66
2021/12/25 05:26:39;;;;;;;4.80;1.23;;;-3.30;99.90;;;;;;5051477;28;20049;-66
2021/12/25 05:29:06;;;;;;;1.80;1.05;;;-3.40;99.90;;;;;;5035291;28;20080;-66
2021/12/25 05:31:33;;;;;;;1.27;1.17;;;-3.40;99.90;;;;;;5031971;28;20049;-67
2021/12/25 05:33:59;;;;;;;1.52;0.82;;;-3.40;99.90;;;;;;5030714;28;20458;-66
2021/12/25 05:36:27;;;;;;;1.10;1.00;;;-3.40;99.90;;;;;;5052978;28;20049;-67
2021/12/25 05:38:57;;;;;;;1.63;1.52;;;-3.40;99.90;;;;;;5034965;28;20386;-67
2021/12/25 05:41:24;;;;;;;1.45;1.13;;;-3.40;99.90;;;;;;5018144;28;20048;-66
2021/12/25 05:43:50;;;;;;;1.52;1.20;;;-3.40;99.90;;;;;;5035088;28;20061;-67
2021/12/25 05:46:16;;;;;;;3.50;1.40;;;-3.40;99.90;;;;;;5049721;28;20374;-66
2021/12/25 05:48:41;;;;;;;2.20;1.30;;;-3.50;99.90;;;;;;5028842;28;20049;-67
2021/12/25 05:51:07;;;;;;;5.28;1.23;;;-3.50;99.90;;;;;;5035078;28;20076;-67
2021/12/25 05:53:34;;;;;;;2.03;1.20;;;-3.50;99.90;;;;;;5034476;28;20053;-66
2021/12/25 05:55:59;;;;;;;3.90;1.30;;;-3.60;99.90;;;;;;5038389;28;20052;-66
2021/12/25 05:58:25;;;;;;;1.25;1.00;;;-3.60;99.90;;;;;;5038758;28;20327;-66
2021/12/25 06:00:50;;;;;;;1.45;1.10;;;-3.60;99.90;;;;;;5021658;28;20055;-67
2021/12/25 06:03:16;;;;;;;1.40;1.13;;;-3.60;99.90;;;;;;5038375;28;20175;-67
2021/12/25 06:05:42;;;;;;;2.67;1.13;;;-3.60;99.90;;;;;;5038480;28;20053;-67
2021/12/25 06:08:08;;;;;;;2.20;1.20;;;-3.60;99.90;;;;;;5038155;28;20055;-67
2021/12/25 06:10:33;;;;;;;1.83;1.10;;;-3.60;99.90;;;;;;5056149;28;20060;-67
2021/12/25 06:13:00;;;;;;;1.75;1.20;;;-3.60;99.90;;;;;;5037928;28;20053;-67
2021/12/25 06:15:28;;;;;;;1.20;1.10;;;-3.60;99.90;;;;;;5036585;28;20547;-67
2021/12/25 06:17:55;;;;;;;2.40;1.10;;;-3.60;99.90;;;;;;5036387;28;20044;-67
2021/12/25 06:20:20;;;;;;;1.42;1.05;;;-3.60;99.90;;;;;;5023877;28;20567;-67
2021/12/25 06:22:46;;;;;;;1.65;0.90;;;-3.60;99.90;;;;;;5019357;28;20084;-65
2021/12/25 06:25:12;;;;;;;2.08;1.13;;;-3.60;99.90;;;;;;5038734;28;20057;-67
2021/12/25 06:27:38;;;;;;;0.90;0.90;;;-3.60;99.90;;;;;;5056232;28;20374;-65
2021/12/25 06:30:06;;;;;;;2.35;0.90;;;-3.60;99.90;;;;;;5037938;28;20052;-67
2021/12/25 06:32:31;;;;;;;2.50;1.10;;;-3.60;99.90;;;;;;5032583;28;20530;-66
2021/12/25 06:34:57;;;;;;;0.80;0.80;;;-3.60;99.90;;;;;;5037929;28;20091;-67
2021/12/25 06:37:24;;;;;;;2.50;1.15;;;-3.60;99.90;;;;;;5038221;28;20053;-67
2021/12/25 06:39:50;;;;;;;1.00;1.00;;;-3.60;99.90;;;;;;5022316;28;20482;-67
2021/12/25 06:42:15;;;;;;;1.60;1.00;;;-3.70;99.90;;;;;;5017722;28;20080;-66
2021/12/25 06:44:42;;;;;;;1.67;0.80;;;-3.70;99.90;;;;;;5014193;28;20061;-68
2021/12/25 06:47:08;;;;;;;3.75;0.93;;;-3.70;99.90;;;;;;5027656;28;20452;-68
2021/12/25 06:49:34;;;;;;;0.90;0.90;;;-3.60;99.90;;;;;;5035080;28;20477;-67
2021/12/25 06:51:59;;;;;;;3.10;1.17;;;-3.70;99.90;;;;;;5035614;28;20068;-68
2021/12/25 06:54:25;;;;;;;1.83;0.75;;;-3.70;99.90;;;;;;5016791;28;20087;-68
2021/12/25 06:56:50;;;;;;;1.77;0.90;;;-3.70;99.90;;;;;;5018059;28;20054;-68
2021/12/25 06:59:17;;;;;;;1.40;1.10;;;;;;;;;;5017776;28;20065;-68
2021/12/25 07:01:43;;;;;;;0.77;0.70;;;-3.70;99.90;;;;;;5017626;28;20056;-66
2021/12/25 07:04:09;;;;;;;1.08;0.80;;;-3.70;99.90;;;;;;5017561;28;20057;-68
2021/12/25 07:06:36;;;;;;;0.98;0.80;;;-3.70;99.90;;;;;;5017096;28;20117;-68
2021/12/25 07:09:05;;;;;;;0.73;0.73;;;-3.70;99.90;;;;;;5013977;28;20061;-68
2021/12/25 07:11:31;;;;;;;2.38;0.98;;;-3.70;99.90;;;;;;4998517;28;20442;-66
2021/12/25 07:13:59;;;;;;;2.03;0.85;;;-3.70;99.90;;;;;;5035643;28;20111;-66
2021/12/25 07:16:25;;;;;;;1.23;0.90;;;-3.80;99.90;;;;;;5034820;28;20490;-67
2021/12/25 07:18:50;;;;;;;0.70;0.70;;;-3.80;99.90;;;;;;5017444;28;20092;-67
2021/12/25 07:21:16;;;;;;;0.80;0.80;;;-3.80;99.90;;;;;;5017784;28;20049;-67
2021/12/25 07:23:42;;;;;;;2.05;0.80;;;-3.80;99.90;;;;;;5017752;28;20486;-67
2021/12/25 07:26:07;;;;;;;4.03;0.85;;;-3.80;99.90;;;;;;5014470;28;20046;-67
2021/12/25 07:28:34;;;;;;;1.05;1.00;;;-3.80;99.90;;;;;;5035404;28;20054;-68
2021/12/25 07:31:00;;;;;;;1.85;0.77;;;-3.80;99.90;;;;;;5016633;28;20046;-69
2021/12/25 07:33:27;;;;;;;0.98;0.98;;;-3.70;99.90;;;;;;5017444;28;20500;-67
2021/12/25 07:35:54;;;;;;;4.32;1.00;;;-3.80;99.90;;;;;;5017252;28;20454;-66
2021/12/25 07:38:21;;;;;;;0.75;0.73;;;-3.80;99.90;;;;;;5016274;28;20184;-66
2021/12/25 07:40:47;;;;;;;1.60;0.88;;;-3.80;99.90;;;;;;5034882;28;20140;-66
2021/12/25 07:43:13;;;;;;;1.77;1.02;;;-3.80;99.90;;;;;;5017215;28;20465;-67
2021/12/25 07:45:40;;;;;;;2.33;0.70;;;-3.80;99.90;;;;;;5016560;28;20089;-67
2021/12/25 07:48:05;;;;;;;1.95;0.90;;;-3.90;99.90;;;;;;5016434;28;20248;-67
2021/12/25 07:50:33;;;;;;;1.48;0.90;;;-3.90;99.90;;;;;;5017310;28;20541;-66
2021/12/25 07:53:00;;;;;;;3.13;1.10;;;-3.90;99.90;;;;;;5016988;28;20135;-65
2021/12/25 07:55:29;;;;;;;1.27;1.17;;;-3.90;99.90;;;;;;5032959;28;20060;-66
2021/12/25 07:57:56;;;;;;;2.53;0.90;;;-3.90;99.90;;;;;;5034534;28;20046;-66
2021/12/25 08:00:22;;;;;;;2.25;0.98;;;-3.90;99.90;;;;;;5016911;28;20136;-66
2021/12/25 08:02:47;;;;;;;2.75;0.80;;;-3.90;99.90;;;;;;5015860;28;20116;-66
2021/12/25 08:05:13;;;;;;;1.85;1.00;;;-3.90;99.90;;;;;;5015443;28;20049;-65
2021/12/25 08:07:39;;;;;;;1.30;0.80;;;-4.00;99.90;;;;;;5016606;28;20060;-66
2021/12/25 08:10:17;;;;;;;1.40;0.88;;;-4.00;99.90;;;;;;5016441;28;20100;-67
2021/12/25 08:12:46;;;;;;;3.10;1.10;;;-4.00;99.90;;;;;;5034424;28;20375;-66
2021/12/25 08:15:14;;;;;;;3.15;1.00;;;-4.00;99.90;;;;;;5016339;28;20064;-65
2021/12/25 08:17:40;;;;;;;2.35;0.88;;;-4.00;99.90;;;;;;5032394;28;20058;-67
2021/12/25 08:20:06;;;;;;;1.33;1.20;;;-4.00;99.90;;;;;;5005976;28;20124;-66
2021/12/25 08:22:32;;;;;;;0.88;0.70;;;-4.00;99.90;;;;;;4997026;28;20050;-67
2021/12/25 08:24:58;;;;;;;4.20;1.25;;;-4.00;99.90;;;;;;4996769;28;20056;-66
2021/12/25 08:27:24;;;;;;;2.80;1.05;;;-4.00;99.90;;;;;;4996740;28;20057;-67
2021/12/25 08:29:49;;;;;;;0.85;0.80;;;-4.00;99.90;;;;;;5013437;28;20069;-67
2021/12/25 08:32:18;;;;;;;0.77;0.77;;;-4.00;99.90;;;;;;5012557;28;20482;-66
2021/12/25 08:34:44;;;;;;;1.10;0.93;;;-4.00;99.90;;;;;;4996962;28;20068;-69
2021/12/25 08:37:11;;;;;;;1.77;1.08;;;-4.00;99.90;;;;;;5015807;28;20049;-67
2021/12/25 08:39:37;;;;;;;1.23;1.13;;;-4.00;99.90;;;;;;4998913;28;20080;-68
2021/12/25 08:42:04;;;;;;;1.17;1.02;;;-4.00;99.90;;;;;;5015970;28;20096;-65
2021/12/25 08:44:40;;;;;;;1.83;1.15;;;-4.00;99.90;;;;;;4998198;28;20187;-67
2021/12/25 08:47:12;;;;;;;2.60;0.77;;;-4.00;99.90;;;;;;5029900;28;20045;-68
2021/12/25 08:49:40;;;;;;;1.10;1.00;;;-3.90;99.90;;;;;;4996549;28;20057;-68
2021/12/25 08:52:12;;;;;;;2.63;1.02;;;-3.90;99.90;;;;;;5013461;28;20505;-67
2021/12/25 08:54:38;;;;;;;2.58;1.10;;;-3.90;99.90;;;;;;4996480;28;20058;-68
2021/12/25 08:57:05;;;;;;;3.50;1.10;;;-3.90;99.90;;;;;;5013419;28;20105;-66
2021/12/25 08:59:33;;;;;;;4.45;1.10;;;-3.90;99.90;;;;;;4997729;28;20065;-68
2021/12/25 09:01:59;;;;;;;2.63;0.90;;;-3.80;99.90;;;;;;5032678;28;20073;-66
2021/12/25 09:04:24;;;;;;;1.90;1.10;;;-3.80;99.90;;;;;;5016210;28;20450;-67
2021/12/25 09:06:50;;;;;;;2.25;1.50;;;-3.80;99.90;;;;;;5015090;28;20112;-66
2021/12/25 09:09:15;;;;;;;1.67;1.23;;;-3.70;99.90;;;;;;5032901;28;20042;-66
2021/12/25 09:11:42;;;;;;;2.35;0.77;;;-3.70;99.90;;;;;;5033400;28;20052;-66
2021/12/25 09:14:08;;;;;;;1.35;0.80;;;-3.60;99.90;;;;;;5033275;28;20053;-66
2021/12/25 09:16:34;;;;;;;1.20;1.10;;;-3.60;99.90;;;;;;5015344;28;20119;-67
2021/12/25 09:19:00;;;;;;;4.13;1.17;;;-3.40;99.90;;;;;;5015477;28;20085;-65
2021/12/25 09:21:26;;;;;;;2.10;0.82;;;-3.50;99.90;;;;;;5014794;28;20084;-66
2021/12/25 09:23:52;;;;;;;2.08;1.00;;;-3.50;99.90;;;;;;4998700;28;20064;-65
2021/12/25 09:26:18;;;;;;;2.55;0.70;;;-3.40;99.90;;;;;;5014943;28;20056;-67
2021/12/25 09:28:45;;;;;;;1.85;0.95;;;-3.40;99.90;;;;;;5015695;28;20402;-67
2021/12/25 09:31:11;;;;;;;1.65;0.90;;;-3.40;99.90;;;;;;5009328;28;20050;-67
2021/12/25 09:33:37;;;;;;;3.10;0.90;;;-3.30;99.90;;;;;;5004058;28;20056;-68
2021/12/25 09:36:03;;;;;;;1.65;0.88;;;-3.30;99.90;;;;;;5024959;28;20053;-68
2021/12/25 09:38:30;;;;;;;1.88;1.02;;;-3.30;99.90;;;;;;5012782;28;20053;-69
2021/12/25 09:40:57;;;;;;;0.88;0.77;;;-3.30;99.90;;;;;;5028868;28;20401;-66
2021/12/25 09:43:23;;;;;;;2.05;1.10;;;-3.20;99.90;;;;;;5033730;28;20049;-68
2021/12/25 09:45:49;;;;;;;1.45;1.00;;;-3.20;99.90;;;;;;5031057;28;20060;-67
2021/12/25 09:48:15;;;;;;;4.60;2.28;;;-3.10;99.90;;;;;;5032480;28;20041;-68
2021/12/25 09:50:40;;;;;;;3.17;1.20;;;-3.10;99.90;;;;;;5032983;28;20076;-67
2021/12/25 09:53:08;;;;;;;2.00;1.10;;;-3.00;99.90;;;;;;5030901;28;20065;-70
2021/12/25 09:55:34;;;;;;;2.05;1.08;;;-3.00;99.90;;;;;;5051364;28;20041;-67
2021/12/25 09:58:00;;;;;;;2.17;1.00;;;-3.00;99.90;;;;;;5029340;28;20104;-66
2021/12/25 10:00:27;;;;;;;1.85;1.00;;;-2.90;99.90;;;;;;5044857;28;20128;-67
2021/12/25 10:02:55;;;;;;;1.60;1.50;;;-2.80;99.90;;;;;;5031551;28;20045;-66
2021/12/25 10:05:31;;;;;;;3.63;1.95;;;-2.80;99.90;;;;;;5031721;28;20084;-66
2021/12/25 10:08:04;;;;;;;2.92;1.20;;;-2.80;99.90;;;;;;5049840;28;20099;-66
2021/12/25 10:10:46;;;;;;;2.13;1.10;;;-2.80;99.90;;;;;;5033714;28;20092;-67
2021/12/25 10:13:20;;;;;;;1.40;0.88;;;-2.70;99.90;;;;;;5028891;28;20063;-67
2021/12/25 10:15:45;;;;;;;3.08;1.10;;;-2.70;99.90;;;;;;5032199;28;20049;-68
2021/12/25 10:18:11;;;;;;;2.35;1.85;;;-2.60;99.90;;;;;;5022472;28;20098;-66
2021/12/25 10:20:37;;;;;;;3.35;1.15;;;-2.60;99.90;;;;;;5034033;28;20187;-66
2021/12/25 10:23:14;;;;;;;1.85;0.90;;;-2.50;99.90;;;;;;5038438;28;20056;-69
2021/12/25 10:25:45;;;;;;;1.35;0.95;;;-2.50;99.90;;;;;;5033728;28;20049;-68
2021/12/25 10:28:12;;;;;;;1.55;1.13;;;-2.50;99.90;;;;;;5032219;28;20049;-67
2021/12/25 10:31:02;;;;;;;4.70;0.90;;;-2.40;99.90;;;;;;5050741;28;20063;-68
2021/12/25 10:33:28;;;;;;;2.40;0.88;;;-2.40;99.90;;;;;;5024242;28;20397;-70
2021/12/25 10:35:55;;;;;;;1.85;0.82;;;-2.40;99.90;;;;;;5032112;28;20067;-69
2021/12/25 10:38:24;;;;;;;6.82;1.52;;;-2.30;99.90;;;;;;5014414;28;20057;-68
2021/12/25 10:40:50;;;;;;;2.50;1.05;;;-2.30;99.90;;;;;;5029244;28;20377;-67
2021/12/25 10:43:21;;;;;;;1.45;1.08;;;-2.30;99.90;;;;;;5036879;28;20061;-67
2021/12/25 10:46:02;;;;;;;2.00;1.00;;;-2.20;99.90;;;;;;5036199;28;20057;-68
2021/12/25 10:48:30;;;;;;;1.95;1.45;;;-2.20;99.90;;;;;;5035531;28;20088;-70
2021/12/25 10:50:57;;;;;;;1.75;0.80;;;-2.10;99.90;;;;;;5035758;28;20390;-67
2021/12/25 10:53:31;;;;;;;1.98;1.40;;;-2.10;99.90;;;;;;5037659;28;20374;-67
2021/12/25 10:56:14;;;;;;;1.58;0.82;;;-2.10;99.90;;;;;;5037134;28;20072;-69
2021/12/25 10:58:42;;;;;;;2.95;0.88;;;-2.00;99.90;;;;;;5034406;28;20046;-68
2021/12/25 11:01:12;;;;;;;1.67;0.77;;;-2.00;99.90;;;;;;5027490;28;20095;-67
2021/12/25 11:03:42;;;;;;;1.90;0.77;;;-2.00;99.90;;;;;;5033462;28;20053;-67
2021/12/25 11:06:18;;;;;;;2.85;0.90;;;-1.90;99.90;;;;;;5033849;28;20049;-67
2021/12/25 11:08:46;;;;;;;4.63;1.00;;;-1.90;99.90;;;;;;5032790;28;20061;-67
2021/12/25 11:11:20;;;;;;;1.95;0.90;;;-1.90;99.90;;;;;;5034203;28;20170;-67
2021/12/25 11:13:51;;;;;;;3.00;0.70;;;-1.80;99.90;;;;;;5032790;28;20057;-67
2021/12/25 11:16:30;;;;;;;2.70;0.90;;;-1.80;99.90;;;;;;5045260;28;20561;-69
2021/12/25 11:19:05;;;;;;;1.48;0.80;;;-1.70;99.90;;;;;;5030712;28;20059;-66
2021/12/25 11:21:52;;;;;;;2.08;1.17;;;-1.70;99.90;;;;;;5031607;28;20045;-67
2021/12/25 11:24:20;;;;;;;1.23;0.90;;;-1.60;99.90;;;;;;5049732;28;20061;-66
2021/12/25 11:26:54;;;;;;;2.97;0.70;;;-1.60;99.90;;;;;;5047384;28;20044;-68
2021/12/25 11:29:22;;;;;;;2.65;0.95;;;-1.60;99.90;;;;;;5034764;28;20052;-67
2021/12/25 11:31:51;;;;;;;1.58;0.70;;;-1.50;99.90;;;;;;5036839;28;20049;-68
2021/12/25 11:34:18;;;;;;;1.40;0.80;;;-1.50;99.90;;;;;;5034016;28;20132;-67
2021/12/25 11:36:48;;;;;;;1.75;1.02;;;-1.40;99.90;;;;;;5035228;28;20470;-68
2021/12/25 11:39:15;;;;;;;1.73;1.33;;;-1.40;99.90;;;;;;5034046;28;20053;-70
2021/12/25 11:41:42;;;;;;;1.55;1.00;;;-1.40;99.90;;;;;;5031635;28;20044;-68
2021/12/25 11:44:35;;;;;;;1.13;0.77;;;-1.30;99.90;;;;;;5030487;28;20068;-68
2021/12/25 11:47:03;;;;;;;1.65;0.60;;;-1.30;99.10;;;;;;5028981;28;20045;-68
2021/12/25 11:49:29;;;;;;;2.35;0.98;;;-1.30;99.60;;;;;;5042091;28;20041;-68
2021/12/25 11:52:11;;;;;;;1.77;1.00;;;-1.20;99.90;;;;;;5034339;28;20061;-67
2021/12/25 11:57:46;;;;;;;2.05;0.70;;;-1.20;99.90;;;;;;5052460;28;20063;-70
2021/12/25 12:00:12;;;;;;;1.58;0.80;;;-1.00;99.90;;;;;;5036002;28;20508;-67
2021/12/25 12:02:43;;;;;;;1.55;0.80;;;-1.10;99.90;;;;;;5035117;28;20055;-67
2021/12/25 12:05:26;;;;;;;3.05;1.08;;;-1.10;99.90;;;;;;5053346;28;20128;-67
2021/12/25 12:08:07;;;;;;;1.27;0.70;;;-1.20;99.90;;;;;;5035901;28;20504;-67
2021/12/25 12:11:00;;;;;;;1.35;0.70;;;-1.20;99.90;;;;;;5019304;28;20486;-68
2021/12/25 12:13:31;;;;;;;1.75;0.70;;;-1.10;99.90;;;;;;5034374;28;20045;-67
2021/12/25 12:16:02;;;;;;;1.88;0.70;;;-0.90;99.90;;;;;;5035324;28;20065;-68
2021/12/25 12:18:30;;;;;;;2.75;1.25;;;-1.00;99.90;;;;;;5054188;28;20202;-68
2021/12/25 12:21:10;;;;;;;5.25;1.85;;;-1.10;99.90;;;;;;5035924;28;20109;-66
2021/12/25 12:23:50;;;;;;;2.42;0.95;;;-0.90;99.90;;;;;;5036427;28;20130;-68
2021/12/25 12:26:44;;;;;;;6.22;1.40;;;-0.80;99.90;;;;;;5035914;28;20061;-68
2021/12/25 12:29:10;;;;;;;1.35;0.82;;;-0.50;99.90;;;;;;5053195;28;20061;-66
2021/12/25 12:31:45;;;;;;;1.73;0.77;;;-0.70;99.90;;;;;;5035565;28;20049;-67
2021/12/25 12:34:37;;;;;;;1.13;0.75;;;-0.60;99.90;;;;;;5054275;28;20098;-67
2021/12/25 12:37:15;;;;;;;2.53;1.05;;;-0.50;99.90;;;;;;5035355;28;20045;-69
2021/12/25 12:40:06;;;;;;;2.40;1.13;;;-0.40;99.90;;;;;;5025661;28;20052;-67
2021/12/25 12:42:45;;;;;;;2.17;0.90;;;-0.50;99.90;;;;;;5033698;28;20049;-67
2021/12/25 12:45:15;;;;;;;3.35;0.82;;;-0.60;99.90;;;;;;5035959;28;20079;-68
2021/12/25 12:48:01;;;;;;;1.08;0.80;;;-0.70;99.90;;;;;;5028531;28;20050;-68
2021/12/25 12:50:32;;;;;;;2.20;0.85;;;-0.80;99.90;;;;;;5035367;28;20061;-68
2021/12/25 12:53:00;;;;;;;3.78;0.95;;;-0.70;99.90;;;;;;5053137;28;20057;-67
2021/12/25 12:55:32;;;;;;;2.67;0.80;;;-0.70;99.90;;;;;;5052336;28;20053;-67
2021/12/25 12:58:23;;;;;;;1.42;0.93;;;-0.60;99.90;;;;;;5031557;28;20132;-68
2021/12/25 13:00:55;;;;;;;2.00;1.08;;;-0.70;99.90;;;;;;5016470;28;20136;-68
2021/12/25 13:03:24;;;;;;;1.60;0.70;;;-0.70;99.90;;;;;;5015767;28;20136;-67
2021/12/25 13:05:55;;;;;;;1.65;0.85;;;-0.80;96.90;;;;;;5015055;28;20474;-67
2021/12/25 13:08:24;;;;;;;3.67;0.95;;;-0.80;97.30;;;;;;5015484;28;20339;-68
2021/12/25 13:10:51;;;;;;;1.55;0.73;;;-0.90;96.70;;;;;;5015265;28;20045;-66
2021/12/25 13:13:17;;;;;;;4.60;1.38;;;-0.90;97.20;;;;;;5026102;28;20049;-68
2021/12/25 13:15:45;;;;;;;2.25;1.10;;;-0.90;96.60;;;;;;5015485;28;20064;-67
2021/12/25 13:18:11;;;;;;;4.00;1.00;;;-0.90;95.20;;;;;;5015166;28;20053;-69
2021/12/25 13:20:45;;;;;;;5.68;1.20;;;-0.90;96.70;;;;;;5015927;28;20057;-68
2021/12/25 13:23:17;;;;;;;1.70;0.95;;;-1.00;97.80;;;;;;5033166;28;20057;-66
2021/12/25 13:25:45;;;;;;;3.28;1.20;;;-1.00;97.30;;;;;;5014762;28;20485;-66
2021/12/25 13:28:11;;;;;;;2.75;1.20;;;-1.00;96.90;;;;;;5029031;28;20493;-68
2021/12/25 13:30:43;;;;;;;3.17;1.10;;;-1.00;97.60;;;;;;5034547;28;20048;-67
2021/12/25 13:33:13;;;;;;;1.65;0.90;;;-1.00;98.30;;;;;;5034792;28;20049;-67
2021/12/25 13:35:40;;;;;;;4.25;1.38;;;-1.00;97.60;;;;;;5035201;28;20489;-69
2021/12/25 13:38:06;;;;;;;3.35;1.30;;;-1.00;97.20;;;;;;5035052;28;20051;-67
2021/12/25 13:40:33;;;;;;;2.85;0.80;;;-1.10;98.20;;;;;;5034875;28;20064;-68
2021/12/25 13:43:10;;;;;;;2.22;1.52;;;-1.10;97.50;;;;;;5034611;28;20485;-68
2021/12/25 13:45:37;;;;;;;2.80;1.15;;;-1.10;96.50;;;;;;5052506;28;20045;-68
2021/12/25 13:48:05;;;;;;;4.20;1.50;;;-1.10;96.90;;;;;;5034666;28;20063;-68
2021/12/25 13:50:31;;;;;;;2.65;0.80;;;-1.10;96.30;;;;;;5034889;28;20489;-69
2021/12/25 13:53:00;;;;;;;2.88;0.93;;;-1.20;96.10;;;;;;5035213;28;20425;-69
2021/12/25 13:55:33;;;;;;;2.65;1.23;;;-1.10;97.70;;;;;;5035118;28;20116;-67
2021/12/25 13:58:01;;;;;;;;;;;-1.20;97.20;;;;;;5034727;28;20060;-67
2021/12/25 14:00:44;;;;;;;0.95;0.75;;;-1.20;95.40;;;;;;5052782;28;19924;-67
2021/12/25 14:03:13;;;;;;;1.25;1.10;;;-1.20;97.70;;;;;;5034251;28;20041;-68
2021/12/25 14:05:46;;;;;;;2.90;0.93;;;-1.20;97.50;;;;;;5034598;28;20488;-69
2021/12/25 14:08:12;;;;;;;1.88;0.68;;;-1.20;97.60;;;;;;5018167;28;20524;-69
2021/12/25 14:10:39;;;;;;;1.27;0.90;;;-1.30;98.50;;;;;;5052636;28;20064;-68